createdAt,value
2018-09-12T00:00:16.531Z,7.47
2018-09-12T00:06:10.273Z,3.67
2018-09-12T00:12:03.615Z,4.33
2018-09-12T00:14:43.700Z,4.03
2018-09-12T00:17:36.366Z,5.07
2018-09-12T00:20:22.622Z,6.57
2018-09-12T00:23:29.290Z,8.23
2018-09-12T00:26:37.269Z,4.90
2018-09-12T00:32:01.499Z,9.08
2018-09-12T00:34:52.496Z,3.87
2018-09-12T00:38:12.731Z,6.40
2018-09-12T00:41:08.644Z,4.53
2018-09-12T00:43:46.802Z,3.70
2018-09-12T00:46:37.540Z,8.17
2018-09-12T00:49:25.194Z,9.43
2018-09-12T00:52:14.587Z,5.60
2018-09-12T00:55:01.888Z,7.20
2018-09-12T01:01:01.129Z,5.27
2018-09-12T01:12:53.809Z,5.95
2018-09-12T01:15:42.324Z,5.33
2018-09-12T01:18:28.539Z,4.07
2018-09-12T01:21:13.615Z,4.30
2018-09-12T01:27:00.983Z,3.70
2018-09-12T01:29:57.368Z,5.53
2018-09-12T01:32:50.345Z,4.37
2018-09-12T01:41:06.217Z,6.33
2018-09-12T01:44:02.877Z,5.50
2018-09-12T01:50:08.652Z,7.50
2018-09-12T02:04:07.281Z,5.40
2018-09-12T02:06:57.566Z,4.77
2018-09-12T02:09:54.482Z,5.00
2018-09-12T02:12:48.727Z,4.33
2018-09-12T02:18:29.957Z,10.60
2018-09-12T02:21:33.401Z,6.53
2018-09-12T02:24:05.668Z,6.50
2018-09-12T02:27:01.946Z,7.17
2018-09-12T02:29:54.361Z,4.50
2018-09-12T02:32:47.875Z,6.33
2018-09-12T02:35:24.138Z,4.30
2018-09-12T02:38:20.880Z,7.33
2018-09-12T02:41:22.514Z,6.23
2018-09-12T02:44:19.993Z,5.03
2018-09-12T02:52:38.537Z,6.77
2018-09-12T03:01:34.177Z,9.50
2018-09-12T03:04:15.820Z,10.33
2018-09-12T03:06:51.275Z,7.23
2018-09-12T03:09:34.251Z,18.83
2018-09-12T03:12:07.438Z,6.93
2018-09-12T03:14:46.887Z,7.37
2018-09-12T03:17:23.771Z,5.95
2018-09-12T03:20:02.832Z,12.60
2018-09-12T03:22:41.804Z,5.77
2018-09-12T03:25:24.564Z,5.67
2018-09-12T03:27:59.963Z,10.63
2018-09-12T03:30:36.080Z,6.40
2018-09-12T03:33:13.184Z,5.50
2018-09-12T03:35:52.013Z,5.53
2018-09-12T03:38:32.110Z,9.40
2018-09-12T03:41:21.668Z,5.90
2018-09-12T03:43:56.858Z,6.77
2018-09-12T03:46:29.702Z,5.30
2018-09-12T03:49:12.924Z,5.80
2018-09-12T03:51:49.413Z,5.80
2018-09-12T03:54:30.711Z,7.67
2018-09-12T03:57:15.839Z,6.33
2018-09-12T03:59:55.518Z,6.87
2018-09-12T04:02:33.712Z,5.10
2018-09-12T04:05:11.133Z,5.87
2018-09-12T04:07:45.929Z,5.50
2018-09-12T04:10:30.872Z,7.23
2018-09-12T04:13:06.384Z,6.43
2018-09-12T04:15:48.602Z,8.73
2018-09-12T04:18:27.289Z,6.30
2018-09-12T04:21:12.289Z,8.37
2018-09-12T04:23:56.371Z,9.20
2018-09-12T04:26:37.620Z,9.03
2018-09-12T04:29:12.574Z,8.43
2018-09-12T04:31:57.381Z,5.50
2018-09-12T04:34:46.439Z,6.23
2018-09-12T04:37:32.761Z,15.60
2018-09-12T04:40:09.978Z,7.47
2018-09-12T04:42:48.395Z,6.97
2018-09-12T04:45:38.771Z,6.13
2018-09-12T04:51:03.833Z,6.23
2018-09-12T04:53:50.511Z,6.33
2018-09-12T04:56:26.364Z,12.27
2018-09-12T04:58:59.201Z,8.50
2018-09-12T05:01:46.074Z,8.20
2018-09-12T05:07:37.686Z,9.13
2018-09-12T05:10:37.449Z,12.27
2018-09-12T05:13:14.627Z,10.40
2018-09-12T05:16:11.380Z,8.90
2018-09-12T05:19:07.712Z,7.90
2018-09-12T05:21:59.490Z,6.50
2018-09-12T05:24:50.631Z,9.10
2018-09-12T05:27:40.803Z,14.33
2018-09-12T05:30:23.214Z,9.50
2018-09-12T05:32:57.243Z,7.00
2018-09-12T05:35:48.751Z,9.97
2018-09-12T05:38:36.637Z,11.83
2018-09-12T05:41:27.770Z,10.70
2018-09-12T05:44:17.437Z,11.47
2018-09-12T05:50:08.646Z,8.17
2018-09-12T05:53:00.811Z,8.20
2018-09-12T05:56:06.912Z,10.73
2018-09-12T05:58:50.191Z,8.50
2018-09-12T06:01:36.363Z,16.17
2018-09-12T06:09:26.776Z,9.33
2018-09-12T06:12:02.972Z,9.70
2018-09-12T06:14:39.995Z,16.77
2018-09-12T06:17:23.952Z,13.40
2018-09-12T06:20:16.164Z,8.83
2018-09-12T06:23:04.581Z,15.93
2018-09-12T06:25:54.366Z,11.33
2018-09-12T06:28:36.662Z,10.80
2018-09-12T06:34:31.452Z,14.13
2018-09-12T06:37:31.704Z,11.67
2018-09-12T06:40:08.657Z,13.40
2018-09-12T06:42:49.417Z,12.10
2018-09-12T06:45:30.881Z,10.30
2018-09-12T06:48:34.794Z,22.90
2018-09-12T06:54:22.777Z,10.80
2018-09-12T06:57:50.413Z,11.50
2018-09-12T07:00:37.901Z,18.67
2018-09-12T07:04:11.341Z,15.07
2018-09-12T07:07:10.793Z,13.00
2018-09-12T07:09:48.801Z,17.63
2018-09-12T07:12:31.151Z,11.20
2018-09-12T07:15:05.257Z,23.13
2018-09-12T07:17:43.099Z,24.50
2018-09-12T07:20:26.417Z,14.40
2018-09-12T07:23:23.780Z,13.00
2018-09-12T07:26:03.180Z,17.40
2018-09-12T07:28:43.385Z,19.42
2018-09-12T07:31:32.590Z,15.67
2018-09-12T07:37:03.001Z,18.73
2018-09-12T07:39:56.592Z,16.57
2018-09-12T07:42:56.407Z,18.47
2018-09-12T07:45:58.596Z,18.50
2018-09-12T07:48:34.622Z,17.50
2018-09-12T07:51:14.200Z,23.92
2018-09-12T07:53:58.983Z,22.30
2018-09-12T07:56:47.186Z,24.37
2018-09-12T07:59:35.264Z,19.13
2018-09-12T08:02:46.530Z,20.20
2018-09-12T08:05:39.609Z,18.60
2018-09-12T08:14:30.488Z,13.90
2018-09-12T08:17:10.392Z,22.53
2018-09-12T08:25:18.846Z,21.50
2018-09-12T08:30:56.409Z,18.07
2018-09-12T08:43:28.144Z,18.97
2018-09-12T08:46:10.126Z,19.23
2018-09-12T08:48:49.143Z,20.07
2018-09-12T08:51:53.621Z,24.50
2018-09-12T08:54:44.269Z,28.27
2018-09-12T08:57:25.811Z,17.70
2018-09-12T09:00:15.668Z,26.77
2018-09-12T09:08:38.628Z,19.97
2018-09-12T09:11:22.675Z,21.07
2018-09-12T09:14:11.531Z,20.87
2018-09-12T09:17:10.873Z,21.57
2018-09-12T09:20:09.676Z,20.57
2018-09-12T09:22:53.973Z,21.50
2018-09-12T09:28:48.574Z,18.50
2018-09-12T09:45:44.701Z,25.17
2018-09-12T09:48:31.400Z,23.23
2018-09-12T09:51:25.219Z,22.40
2018-09-12T09:54:16.501Z,22.27
2018-09-12T09:57:04.051Z,21.93
2018-09-12T09:59:40.932Z,23.65
2018-09-12T10:02:31.461Z,20.50
2018-09-12T10:11:23.680Z,21.83
2018-09-12T10:14:00.198Z,19.00
2018-09-12T10:16:41.598Z,17.77
2018-09-12T10:19:19.513Z,11.63
2018-09-12T10:22:12.020Z,29.83
2018-09-12T10:30:44.584Z,20.73
2018-09-12T10:33:32.572Z,13.70
2018-09-12T10:36:21.927Z,16.67
2018-09-12T10:39:17.842Z,16.80
2018-09-12T10:47:24.111Z,14.13
2018-09-12T10:57:22.440Z,20.60
2018-09-12T11:00:12.581Z,19.43
2018-09-12T11:02:51.514Z,16.90
2018-09-12T11:08:37.732Z,15.40
2018-09-12T11:14:46.470Z,12.73
2018-09-12T11:18:00.165Z,16.47
2018-09-12T11:26:37.836Z,17.10
2018-09-12T11:29:49.297Z,15.65
2018-09-12T11:36:45.641Z,11.73
2018-09-12T11:39:48.839Z,8.10
2018-09-12T11:42:33.327Z,7.23
2018-09-12T11:45:24.508Z,7.33
2018-09-12T11:48:39.183Z,7.50
2018-09-12T11:51:30.174Z,8.37
2018-09-12T11:54:23.911Z,8.30
2018-09-12T11:57:11.124Z,4.53
2018-09-12T11:59:51.065Z,7.03
2018-09-12T12:02:39.434Z,4.87
2018-09-12T12:05:29.901Z,4.97
2018-09-12T12:08:10.644Z,8.90
2018-09-12T12:10:58.309Z,4.50
2018-09-12T12:13:37.063Z,4.23
2018-09-12T12:16:19.562Z,6.80
2018-09-12T12:19:10.167Z,4.80
2018-09-12T12:22:04.323Z,5.90
2018-09-12T12:25:45.096Z,4.90
2018-09-12T12:28:37.363Z,4.00
2018-09-12T12:31:27.161Z,4.47
2018-09-12T12:34:38.984Z,4.97
2018-09-12T12:37:21.417Z,4.37
2018-09-12T12:40:29.863Z,4.60
2018-09-12T12:49:31.373Z,4.07
2018-09-12T12:52:22.231Z,4.10
2018-09-12T12:58:00.578Z,8.53
2018-09-12T13:03:47.481Z,4.23
2018-09-12T13:48:24.181Z,7.40
2018-09-12T13:51:16.154Z,6.83
2018-09-12T13:54:12.670Z,5.83
2018-09-12T13:58:03.401Z,7.37
2018-09-12T14:01:10.648Z,5.80
2018-09-12T14:04:05.867Z,4.93
2018-09-12T14:07:22.930Z,6.90
2018-09-12T14:15:16.002Z,4.27
2018-09-12T14:18:04.080Z,4.30
2018-09-12T14:20:58.459Z,6.80
2018-09-12T14:23:49.425Z,3.37
2018-09-12T14:29:30.062Z,4.58
2018-09-12T14:32:10.560Z,2.67
2018-09-12T14:38:06.788Z,2.90
2018-09-12T14:40:48.452Z,2.77
2018-09-12T14:43:33.334Z,4.17
2018-09-12T14:46:20.547Z,4.20
2018-09-12T14:49:22.871Z,4.15
2018-09-12T14:52:06.802Z,2.50
2018-09-12T15:03:47.254Z,3.80
2018-09-12T15:06:47.839Z,5.90
2018-09-12T15:09:27.618Z,6.30
2018-09-12T15:12:09.497Z,5.27
2018-09-12T15:14:56.670Z,5.00
2018-09-12T15:20:46.818Z,6.83
2018-09-12T15:33:10.771Z,6.43
2018-09-12T15:36:18.098Z,6.65
2018-09-12T15:39:17.474Z,6.70
2018-09-12T15:41:59.917Z,6.97
2018-09-12T15:44:51.925Z,9.80
2018-09-12T15:47:51.433Z,6.00
2018-09-12T15:50:40.878Z,7.20
2018-09-12T16:26:09.149Z,4.80
2018-09-12T16:36:14.933Z,5.70
2018-09-12T16:39:12.301Z,5.60
2018-09-12T16:42:34.439Z,6.47
2018-09-12T16:48:22.060Z,7.27
2018-09-12T16:51:09.110Z,7.00
2018-09-12T17:00:23.400Z,6.60
2018-09-12T17:13:17.382Z,6.00
2018-09-12T17:28:50.541Z,5.92
2018-09-12T17:35:05.205Z,5.67
2018-09-12T17:37:48.891Z,5.07
2018-09-12T18:16:20.805Z,6.57
2018-09-12T18:19:15.524Z,7.80
2018-09-12T18:28:37.823Z,5.00
2018-09-12T18:31:23.621Z,3.53
2018-09-12T18:34:14.095Z,7.10
2018-09-12T18:37:05.879Z,4.77
2018-09-12T18:40:29.853Z,3.53
2018-09-12T18:56:07.844Z,5.03
2018-09-12T18:59:09.351Z,5.33
2018-09-12T19:02:17.839Z,5.90
2018-09-12T19:17:02.659Z,6.10
2018-09-12T19:19:52.039Z,7.27
2018-09-12T19:22:42.670Z,7.87
2018-09-12T19:28:30.455Z,6.33
2018-09-12T19:34:16.646Z,6.30
2018-09-12T19:37:08.469Z,7.67
2018-09-12T19:42:48.408Z,5.93
2018-09-12T19:48:52.592Z,8.23
2018-09-12T19:57:11.699Z,6.13
2018-09-12T20:00:24.032Z,6.57
2018-09-12T20:03:02.294Z,9.55
2018-09-12T20:18:38.863Z,6.40
2018-09-12T20:21:31.998Z,8.90
2018-09-12T20:41:55.809Z,13.10
2018-09-12T20:44:50.366Z,8.67
2018-09-12T20:51:04.461Z,11.37
2018-09-12T20:53:55.420Z,9.37
2018-09-12T20:56:52.196Z,9.93
2018-09-12T20:59:29.436Z,16.10
2018-09-12T21:02:16.755Z,7.67
2018-09-12T21:05:08.608Z,6.60
2018-09-12T21:07:45.680Z,8.67
2018-09-12T21:10:28.208Z,6.27
2018-09-12T21:15:20.547Z,4.57
2018-09-12T21:17:59.413Z,5.00
2018-09-12T21:23:49.677Z,6.93
2018-09-12T21:29:52.391Z,5.00
2018-09-12T21:32:46.387Z,6.70
2018-09-12T21:35:44.958Z,6.60
2018-09-12T21:38:26.363Z,6.10
2018-09-12T21:41:05.647Z,6.67
2018-09-12T21:43:45.658Z,5.77
2018-09-12T21:46:59.930Z,9.00
2018-09-12T21:49:55.268Z,4.70
2018-09-12T21:55:30.491Z,5.10
2018-09-12T21:58:04.800Z,5.50
2018-09-12T22:01:09.640Z,7.33
2018-09-12T22:03:49.670Z,4.73
2018-09-12T22:06:38.828Z,5.90
2018-09-12T22:09:28.090Z,4.57
2018-09-12T22:12:06.017Z,3.00
2018-09-12T22:14:42.565Z,4.50
2018-09-12T22:17:19.537Z,4.63
2018-09-12T22:20:13.328Z,3.80
2018-09-12T22:22:53.192Z,3.27
2018-09-12T22:25:30.186Z,4.93
2018-09-12T22:28:12.382Z,4.90
2018-09-12T22:34:19.012Z,3.93
2018-09-12T22:37:03.124Z,3.98
2018-09-12T22:39:39.195Z,3.20
2018-09-12T22:42:26.695Z,4.00
2018-09-12T22:45:10.485Z,6.27
2018-09-12T22:50:36.409Z,4.57
2018-09-12T22:53:22.710Z,3.83
2018-09-12T22:56:12.234Z,3.33
2018-09-12T22:58:51.496Z,3.73
2018-09-12T23:01:33.555Z,4.53
2018-09-12T23:04:21.086Z,4.17
2018-09-12T23:07:04.527Z,7.93
2018-09-12T23:12:23.898Z,3.50
2018-09-12T23:15:03.616Z,4.03
2018-09-12T23:17:39.707Z,4.50
2018-09-12T23:20:15.880Z,5.27
2018-09-12T23:22:57.503Z,6.93
2018-09-12T23:25:35.701Z,3.80
2018-09-12T23:28:11.315Z,5.63
2018-09-12T23:30:44.877Z,7.20
2018-09-12T23:33:32.937Z,5.70
2018-09-12T23:36:10.596Z,3.37
2018-09-12T23:38:47.914Z,3.90
2018-09-12T23:41:21.301Z,4.95
2018-09-12T23:43:56.160Z,4.63
2018-09-12T23:46:30.044Z,3.53
2018-09-12T23:49:09.103Z,4.57
2018-09-12T23:52:04.644Z,3.87
2018-09-12T23:54:37.881Z,4.53
2018-09-12T23:57:17.411Z,5.23
2018-09-12T23:59:51.257Z,4.00
